createdAt,value
2024-04-16T00:00:44.631Z,60.40
2024-04-16T00:03:16.862Z,61.06
2024-04-16T00:05:49.029Z,60.45
2024-04-16T00:08:22.491Z,61.10
2024-04-16T00:10:54.823Z,60.95
2024-04-16T00:13:26.863Z,61.07
2024-04-16T00:16:00.075Z,61.02
2024-04-16T00:18:32.250Z,61.50
2024-04-16T00:21:04.564Z,61.42
2024-04-16T00:23:36.818Z,61.64
2024-04-16T00:26:09.002Z,61.45
2024-04-16T00:28:41.206Z,61.92
2024-04-16T00:31:13.397Z,62.10
2024-04-16T00:33:45.618Z,62.47
2024-04-16T00:36:17.795Z,63.54
2024-04-16T00:38:49.911Z,62.38
2024-04-16T00:41:22.119Z,62.75
2024-04-16T00:43:54.347Z,63.64
2024-04-16T00:46:26.623Z,63.48
2024-04-16T00:48:59.043Z,64.42
2024-04-16T00:51:31.485Z,65.29
2024-04-16T00:54:04.135Z,65.27
2024-04-16T00:56:37.962Z,65.98
2024-04-16T00:59:10.173Z,66.47
2024-04-16T01:01:42.342Z,66.50
2024-04-16T01:04:14.568Z,67.00
2024-04-16T01:06:46.934Z,67.33
2024-04-16T01:09:19.332Z,67.10
2024-04-16T01:11:51.803Z,68.21
2024-04-16T01:14:23.744Z,67.33
2024-04-16T01:16:56.158Z,66.63
2024-04-16T01:19:28.880Z,66.27
2024-04-16T01:22:01.111Z,66.58
2024-04-16T01:24:33.810Z,65.98
2024-04-16T01:27:06.167Z,67.04
2024-04-16T01:29:40.659Z,67.60
2024-04-16T01:32:15.120Z,68.35
2024-04-16T01:34:47.355Z,67.65
2024-04-16T01:37:19.562Z,68.61
2024-04-16T01:39:51.794Z,67.58
2024-04-16T01:42:24.027Z,69.19
2024-04-16T01:44:57.650Z,70.60
2024-04-16T01:47:29.968Z,70.53
2024-04-16T01:50:02.017Z,69.90
2024-04-16T01:52:34.236Z,70.96
2024-04-16T01:55:06.530Z,70.42
2024-04-16T01:57:40.815Z,71.00
2024-04-16T02:00:13.169Z,73.04
2024-04-16T02:02:46.258Z,72.67
2024-04-16T02:05:18.543Z,71.94
2024-04-16T02:07:50.730Z,73.13
2024-04-16T02:10:22.985Z,72.88
2024-04-16T02:12:55.177Z,75.21
2024-04-16T02:15:27.339Z,73.13
2024-04-16T02:17:59.591Z,73.32
2024-04-16T02:20:33.047Z,74.08
2024-04-16T02:23:06.081Z,72.80
2024-04-16T02:25:38.309Z,73.82
2024-04-16T02:28:11.727Z,72.64
2024-04-16T02:30:44.629Z,73.25
2024-04-16T02:33:17.735Z,71.43
2024-04-16T02:35:49.962Z,72.68
2024-04-16T02:38:22.478Z,73.96
2024-04-16T02:40:54.724Z,73.08
2024-04-16T02:43:26.922Z,74.26
2024-04-16T02:45:59.304Z,73.33
2024-04-16T02:48:31.344Z,73.96
2024-04-16T02:51:04.148Z,73.72
2024-04-16T02:53:36.375Z,74.31
2024-04-16T02:56:08.795Z,72.74
2024-04-16T02:58:41.043Z,74.68
2024-04-16T03:01:13.363Z,75.29
2024-04-16T03:03:45.404Z,73.91
2024-04-16T03:06:17.588Z,73.98
2024-04-16T03:08:52.737Z,73.86
2024-04-16T03:11:24.976Z,73.44
2024-04-16T03:13:57.132Z,73.72
2024-04-16T03:16:29.390Z,74.77
2024-04-16T03:19:01.706Z,72.68
2024-04-16T03:21:33.889Z,74.47
2024-04-16T03:24:06.171Z,75.99
2024-04-16T03:26:38.370Z,74.86
2024-04-16T03:29:11.028Z,74.54
2024-04-16T03:31:43.517Z,75.85
2024-04-16T03:34:15.777Z,74.92
2024-04-16T03:36:48.199Z,76.54
2024-04-16T03:39:20.108Z,76.25
2024-04-16T03:41:52.415Z,77.06
2024-04-16T03:44:24.822Z,77.72
2024-04-16T03:46:58.100Z,78.32
2024-04-16T03:49:30.305Z,77.25
2024-04-16T03:52:02.505Z,78.90
2024-04-16T03:54:34.732Z,77.58
2024-04-16T03:57:06.917Z,76.74
2024-04-16T03:59:40.188Z,76.21
2024-04-16T04:02:13.425Z,76.50
2024-04-16T04:04:45.792Z,76.73
2024-04-16T04:07:18.473Z,77.75
2024-04-16T04:09:50.764Z,77.65
2024-04-16T04:12:22.904Z,78.52
2024-04-16T04:14:55.069Z,79.19
2024-04-16T04:17:27.296Z,79.43
2024-04-16T04:19:59.490Z,79.20
2024-04-16T04:22:31.689Z,78.98
2024-04-16T04:25:03.953Z,80.29
2024-04-16T04:27:36.142Z,80.78
2024-04-16T04:30:09.488Z,82.09
2024-04-16T04:32:41.674Z,81.96
2024-04-16T04:35:13.917Z,81.65
2024-04-16T04:37:46.170Z,82.06
2024-04-16T04:40:18.392Z,79.66
2024-04-16T04:42:51.387Z,80.13
2024-04-16T04:45:23.545Z,80.06
2024-04-16T04:47:55.883Z,79.81
2024-04-16T04:50:27.942Z,79.75
2024-04-16T04:53:01.952Z,81.13
2024-04-16T04:55:34.184Z,79.47
2024-04-16T04:58:06.612Z,80.13
2024-04-16T05:00:39.328Z,81.64
2024-04-16T05:03:11.502Z,81.31
2024-04-16T05:05:46.894Z,79.54
2024-04-16T05:08:19.635Z,79.85
2024-04-16T05:10:53.385Z,80.06
2024-04-16T05:13:25.694Z,81.09
2024-04-16T05:15:59.148Z,81.30
2024-04-16T05:18:31.632Z,81.49
2024-04-16T05:21:04.034Z,81.42
2024-04-16T05:23:37.091Z,82.54
2024-04-16T05:26:09.753Z,83.19
2024-04-16T05:28:41.958Z,83.61
2024-04-16T05:31:14.675Z,83.09
2024-04-16T05:33:46.928Z,83.17
2024-04-16T05:36:19.244Z,81.66
2024-04-16T05:38:51.448Z,80.15
2024-04-16T05:41:23.643Z,80.72
2024-04-16T05:43:55.804Z,80.52
2024-04-16T05:46:28.129Z,79.24
2024-04-16T05:49:00.587Z,80.36
2024-04-16T05:51:32.517Z,79.25
2024-04-16T05:54:07.750Z,78.42
2024-04-16T05:56:40.622Z,78.42
2024-04-16T05:59:13.073Z,77.97
2024-04-16T06:01:45.178Z,78.09
2024-04-16T06:04:17.902Z,77.54
2024-04-16T06:06:50.106Z,78.82
2024-04-16T06:09:22.303Z,77.39
2024-04-16T06:11:54.581Z,78.51
2024-04-16T06:14:26.720Z,78.08
2024-04-16T06:16:59.013Z,77.20
2024-04-16T06:19:31.353Z,78.02
2024-04-16T06:22:03.750Z,77.24
2024-04-16T06:24:37.009Z,76.81
2024-04-16T06:27:09.375Z,75.53
2024-04-16T06:29:41.502Z,75.56
2024-04-16T06:32:13.768Z,75.75
2024-04-16T06:34:45.996Z,76.83
2024-04-16T06:37:18.186Z,75.06
2024-04-16T06:39:50.408Z,74.29
2024-04-16T06:42:22.799Z,74.83
2024-04-16T06:44:54.714Z,75.85
2024-04-16T06:47:28.249Z,74.91
2024-04-16T06:50:00.581Z,74.70
2024-04-16T06:52:33.716Z,73.82
2024-04-16T06:55:06.650Z,72.81
2024-04-16T06:57:38.880Z,73.46
2024-04-16T07:00:11.791Z,73.57
2024-04-16T07:02:44.119Z,73.67
2024-04-16T07:05:16.164Z,72.38
2024-04-16T07:07:48.671Z,73.05
2024-04-16T07:10:20.979Z,74.59
2024-04-16T07:12:53.324Z,73.83
2024-04-16T07:15:25.516Z,73.32
2024-04-16T07:17:58.400Z,73.57
2024-04-16T07:20:30.797Z,71.86
2024-04-16T07:23:03.275Z,71.36
2024-04-16T07:25:35.545Z,69.88
2024-04-16T07:28:07.838Z,71.27
2024-04-16T07:30:40.026Z,69.84
2024-04-16T07:33:12.473Z,69.90
2024-04-16T07:35:48.026Z,70.71
2024-04-16T07:38:21.674Z,74.89
2024-04-16T07:40:57.773Z,78.69
2024-04-16T07:43:29.941Z,79.01
2024-04-16T07:46:02.456Z,77.74
2024-04-16T07:48:34.621Z,77.51
2024-04-16T07:51:07.536Z,78.29
2024-04-16T07:53:39.723Z,77.39
2024-04-16T07:56:12.249Z,76.34
2024-04-16T07:58:45.131Z,77.45
2024-04-16T08:01:18.240Z,76.25
2024-04-16T08:03:50.862Z,77.09
2024-04-16T08:06:23.061Z,76.77
2024-04-16T08:08:57.633Z,76.81
2024-04-16T08:11:30.260Z,76.46
2024-04-16T08:14:04.537Z,77.22
2024-04-16T08:16:37.942Z,76.32
2024-04-16T08:19:09.989Z,76.63
2024-04-16T08:21:42.351Z,76.53
2024-04-16T08:24:15.127Z,72.87
2024-04-16T08:26:47.341Z,73.94
2024-04-16T08:29:19.763Z,74.17
2024-04-16T08:31:51.809Z,74.73
2024-04-16T08:34:24.299Z,73.54
2024-04-16T08:36:56.274Z,70.82
2024-04-16T08:39:28.438Z,70.96
2024-04-16T08:42:05.303Z,70.78
2024-04-16T08:44:38.415Z,68.66
2024-04-16T08:47:11.991Z,67.21
2024-04-16T08:49:46.368Z,66.88
2024-04-16T08:52:20.925Z,63.14
2024-04-16T08:54:54.781Z,61.08
2024-04-16T08:57:29.747Z,58.18
2024-04-16T09:00:02.900Z,58.95
2024-04-16T09:02:36.589Z,58.58
2024-04-16T09:05:08.882Z,59.16
2024-04-16T09:07:44.086Z,59.77
2024-04-16T09:10:23.743Z,59.16
2024-04-16T09:12:56.181Z,59.31
2024-04-16T09:15:28.366Z,59.07
2024-04-16T09:18:00.738Z,58.20
2024-04-16T09:20:33.029Z,59.06
2024-04-16T09:23:06.993Z,57.54
2024-04-16T09:25:44.237Z,58.23
2024-04-16T09:28:20.055Z,58.31
2024-04-16T09:30:58.921Z,57.24
2024-04-16T09:33:38.191Z,56.09
2024-04-16T09:36:15.483Z,57.25
2024-04-16T09:38:49.064Z,54.94
2024-04-16T09:41:21.827Z,53.33
2024-04-16T09:43:54.567Z,52.22
2024-04-16T09:46:28.457Z,52.40
2024-04-16T09:49:01.021Z,52.21
2024-04-16T09:51:33.625Z,52.78
2024-04-16T09:54:07.637Z,52.60
2024-04-16T09:56:40.295Z,53.25
2024-04-16T09:59:14.133Z,53.97
2024-04-16T10:01:46.809Z,53.14
2024-04-16T10:04:19.416Z,52.23
2024-04-16T10:06:51.751Z,52.02
2024-04-16T10:09:24.110Z,50.60
2024-04-16T10:11:57.133Z,49.98
2024-04-16T10:14:30.793Z,49.32
2024-04-16T10:17:03.059Z,48.10
2024-04-16T10:19:35.283Z,48.53
2024-04-16T10:22:16.046Z,48.49
2024-04-16T10:24:55.403Z,47.06
2024-04-16T10:27:27.569Z,46.94
2024-04-16T10:30:12.240Z,46.66
2024-04-16T10:32:49.115Z,45.64
2024-04-16T10:35:22.420Z,43.58
2024-04-16T10:37:54.559Z,45.09
2024-04-16T10:40:32.180Z,45.39
2024-04-16T10:43:09.541Z,45.58
2024-04-16T10:45:46.201Z,46.62
2024-04-16T10:48:22.677Z,46.00
2024-04-16T10:50:54.902Z,45.70
2024-04-16T10:53:27.150Z,45.15
2024-04-16T10:55:59.418Z,44.82
2024-04-16T10:58:35.167Z,44.36
2024-04-16T11:01:08.024Z,45.74
2024-04-16T11:03:41.835Z,45.71
2024-04-16T11:06:14.082Z,44.79
2024-04-16T11:08:46.257Z,44.22
2024-04-16T11:11:18.673Z,44.55
2024-04-16T11:13:50.840Z,44.15
2024-04-16T11:16:23.664Z,44.09
2024-04-16T11:18:58.403Z,42.75
2024-04-16T11:21:35.830Z,43.48
2024-04-16T11:24:09.239Z,42.19
2024-04-16T11:26:42.178Z,41.07
2024-04-16T11:29:19.449Z,41.34
2024-04-16T11:31:51.767Z,41.87
2024-04-16T11:34:25.545Z,41.24
2024-04-16T11:36:57.908Z,41.49
2024-04-16T11:39:30.803Z,42.39
2024-04-16T11:42:03.010Z,42.40
2024-04-16T11:44:35.971Z,40.79
2024-04-16T11:47:11.807Z,42.26
2024-04-16T11:49:44.056Z,40.99
2024-04-16T11:52:17.304Z,41.76
2024-04-16T11:54:49.455Z,42.18
2024-04-16T11:57:21.661Z,41.57
2024-04-16T11:59:57.425Z,42.34
2024-04-16T12:02:30.542Z,42.28
2024-04-16T12:05:02.827Z,41.94
2024-04-16T12:07:34.958Z,42.01
2024-04-16T12:10:07.637Z,42.07
2024-04-16T12:12:39.840Z,41.60
2024-04-16T12:15:11.982Z,41.42
2024-04-16T12:17:44.548Z,41.87
2024-04-16T12:20:16.873Z,40.75
2024-04-16T12:22:48.994Z,40.82
2024-04-16T12:25:21.235Z,41.03
2024-04-16T12:27:54.765Z,41.25
2024-04-16T12:30:26.913Z,42.32
2024-04-16T12:33:10.594Z,41.29
2024-04-16T12:35:47.611Z,41.22
2024-04-16T12:38:19.576Z,42.41
2024-04-16T12:40:52.039Z,40.96
2024-04-16T12:43:24.288Z,39.82
2024-04-16T12:46:00.990Z,40.39
2024-04-16T12:48:33.375Z,40.32
2024-04-16T12:51:05.706Z,41.50
2024-04-16T12:53:38.157Z,41.21
2024-04-16T12:56:13.129Z,40.48
2024-04-16T12:58:45.457Z,39.84
2024-04-16T13:01:17.616Z,39.68
2024-04-16T13:03:49.920Z,39.70
2024-04-16T13:06:21.839Z,38.77
2024-04-16T13:08:54.314Z,39.42
2024-04-16T13:11:26.656Z,40.36
2024-04-16T13:13:59.849Z,40.56
2024-04-16T13:16:36.058Z,38.92
2024-04-16T13:19:09.121Z,40.42
2024-04-16T13:21:41.301Z,38.17
2024-04-16T13:24:16.614Z,39.62
2024-04-16T13:26:48.774Z,39.54
2024-04-16T13:29:24.304Z,39.35
2024-04-16T13:31:57.091Z,37.89
2024-04-16T13:34:29.353Z,38.38
2024-04-16T13:37:01.555Z,37.26
2024-04-16T13:39:33.854Z,37.31
2024-04-16T13:42:06.929Z,37.75
2024-04-16T13:44:39.265Z,38.37
2024-04-16T13:47:11.212Z,37.36
2024-04-16T13:49:43.427Z,37.45
2024-04-16T13:52:15.618Z,37.37
2024-04-16T13:54:47.818Z,37.49
2024-04-16T13:57:19.970Z,37.36
2024-04-16T13:59:53.335Z,37.25
2024-04-16T14:02:25.658Z,37.21
2024-04-16T14:04:58.088Z,36.94
2024-04-16T14:07:30.397Z,36.56
2024-04-16T14:10:02.650Z,36.48
2024-04-16T14:12:34.666Z,36.20
2024-04-16T14:15:08.786Z,34.67
2024-04-16T14:17:42.720Z,33.73
2024-04-16T14:20:15.104Z,35.45
2024-04-16T14:22:47.039Z,34.37
2024-04-16T14:25:19.311Z,33.16
2024-04-16T14:27:51.227Z,32.02
2024-04-16T14:30:23.389Z,32.92
2024-04-16T14:32:55.421Z,30.04
2024-04-16T14:35:27.674Z,28.02
2024-04-16T14:37:59.610Z,26.26
2024-04-16T14:40:31.909Z,27.49
2024-04-16T14:43:04.106Z,28.75
2024-04-16T14:45:36.303Z,27.80
2024-04-16T14:48:08.842Z,28.19
2024-04-16T14:50:45.191Z,25.91
2024-04-16T14:53:19.648Z,28.92
2024-04-16T14:55:52.421Z,28.92
2024-04-16T14:58:24.704Z,32.89
2024-04-16T15:00:57.220Z,30.38
2024-04-16T15:03:31.292Z,30.70
2024-04-16T15:06:03.547Z,31.27
2024-04-16T15:08:35.699Z,26.73
2024-04-16T15:11:07.723Z,24.55
2024-04-16T15:13:41.508Z,22.68
2024-04-16T15:16:13.676Z,23.87
2024-04-16T15:18:45.822Z,24.05
2024-04-16T15:21:18.008Z,26.61
2024-04-16T15:23:50.193Z,20.85
2024-04-16T15:26:23.176Z,22.38
2024-04-16T15:28:55.368Z,18.31
2024-04-16T15:31:27.649Z,19.02
2024-04-16T15:33:59.815Z,18.09
2024-04-16T15:36:31.969Z,24.38
2024-04-16T15:39:04.261Z,26.68
2024-04-16T15:41:36.530Z,23.27
2024-04-16T15:44:08.697Z,22.79
2024-04-16T15:46:40.960Z,19.79
2024-04-16T15:49:13.200Z,22.81
2024-04-16T15:51:45.379Z,18.41
2024-04-16T15:54:17.576Z,24.99
2024-04-16T15:56:49.788Z,22.09
2024-04-16T15:59:21.998Z,21.65
2024-04-16T16:01:54.262Z,24.34
2024-04-16T16:04:26.537Z,23.66
2024-04-16T16:06:58.720Z,30.08
2024-04-16T16:09:31.597Z,31.79
2024-04-16T16:12:03.955Z,33.65
2024-04-16T16:14:36.101Z,35.75
2024-04-16T16:17:08.439Z,36.70
2024-04-16T16:19:40.607Z,37.44
2024-04-16T16:22:20.490Z,37.84
2024-04-16T16:24:52.737Z,38.65
2024-04-16T16:27:24.670Z,38.84
2024-04-16T16:29:56.797Z,39.78
2024-04-16T16:32:29.187Z,39.20
2024-04-16T16:35:06.148Z,39.39
2024-04-16T16:37:38.632Z,39.83
2024-04-16T16:40:11.489Z,40.77
2024-04-16T16:42:43.718Z,41.49
2024-04-16T16:45:15.987Z,41.14
2024-04-16T16:47:48.091Z,41.73
2024-04-16T16:50:20.270Z,42.40
2024-04-16T16:52:52.651Z,41.91
2024-04-16T16:55:24.600Z,42.93
2024-04-16T16:57:58.957Z,42.54
2024-04-16T17:00:31.138Z,42.86
2024-04-16T17:03:03.537Z,43.45
2024-04-16T17:05:36.830Z,42.76
2024-04-16T17:08:09.026Z,42.55
2024-04-16T17:10:41.256Z,43.22
2024-04-16T17:13:13.648Z,43.32
2024-04-16T17:15:45.974Z,43.98
2024-04-16T17:18:18.057Z,43.29
2024-04-16T17:20:50.278Z,43.77
2024-04-16T17:23:22.909Z,44.30
2024-04-16T17:25:58.069Z,44.44
2024-04-16T17:28:30.382Z,44.30
2024-04-16T17:31:04.273Z,45.04
2024-04-16T17:33:36.548Z,44.44
2024-04-16T17:36:08.969Z,43.95
2024-04-16T17:38:41.478Z,43.85
2024-04-16T17:41:13.662Z,44.59
2024-04-16T17:43:46.015Z,44.29
2024-04-16T17:46:18.551Z,45.04
2024-04-16T17:48:50.777Z,45.58
2024-04-16T17:51:25.217Z,44.87
2024-04-16T17:53:57.478Z,44.74
2024-04-16T17:56:29.635Z,44.84
2024-04-16T17:59:02.006Z,45.02
2024-04-16T18:01:35.113Z,45.48
2024-04-16T18:04:10.422Z,45.70
2024-04-16T18:06:44.494Z,46.19
2024-04-16T18:09:16.806Z,46.32
2024-04-16T18:11:48.821Z,46.52
2024-04-16T18:14:21.063Z,46.15
2024-04-16T18:16:53.313Z,45.87
2024-04-16T18:19:25.562Z,45.73
2024-04-16T18:21:57.703Z,45.93
2024-04-16T18:24:29.930Z,45.81
2024-04-16T18:27:02.129Z,46.43
2024-04-16T18:29:34.265Z,46.23
2024-04-16T18:32:06.632Z,46.88
2024-04-16T18:34:39.614Z,46.72
2024-04-16T18:37:12.014Z,46.69
2024-04-16T18:39:44.078Z,47.13
2024-04-16T18:42:17.487Z,47.00
2024-04-16T18:44:49.968Z,47.18
2024-04-16T18:47:23.177Z,46.80
2024-04-16T18:49:56.321Z,47.18
2024-04-16T18:52:29.193Z,47.33
2024-04-16T18:55:02.963Z,47.38
2024-04-16T18:57:35.226Z,48.26
2024-04-16T19:00:07.979Z,47.45
2024-04-16T19:02:41.950Z,47.90
2024-04-16T19:05:16.931Z,48.04
2024-04-16T19:07:49.126Z,48.56
2024-04-16T19:10:21.948Z,48.95
2024-04-16T19:12:55.982Z,50.14
2024-04-16T19:15:30.348Z,49.52
2024-04-16T19:18:02.538Z,50.25
2024-04-16T19:20:36.200Z,50.68
2024-04-16T19:23:08.507Z,51.22
2024-04-16T19:25:40.781Z,51.62
2024-04-16T19:28:12.944Z,52.10
2024-04-16T19:30:45.306Z,52.20
2024-04-16T19:33:17.362Z,51.35
2024-04-16T19:35:49.702Z,51.73
2024-04-16T19:38:23.256Z,52.54
2024-04-16T19:40:55.459Z,52.10
2024-04-16T19:43:27.743Z,52.26
2024-04-16T19:46:00.114Z,53.16
2024-04-16T19:48:32.384Z,53.17
2024-04-16T19:51:04.654Z,52.88
2024-04-16T19:53:37.006Z,52.74
2024-04-16T19:56:09.300Z,53.71
2024-04-16T19:58:41.264Z,54.30
2024-04-16T20:01:13.471Z,53.96
2024-04-16T20:03:47.338Z,54.04
2024-04-16T20:06:20.682Z,54.62
2024-04-16T20:08:57.301Z,55.10
2024-04-16T20:11:29.581Z,55.04
2024-04-16T20:14:01.888Z,54.98
2024-04-16T20:16:34.132Z,55.29
2024-04-16T20:19:07.742Z,56.19
2024-04-16T20:21:40.186Z,56.32
2024-04-16T20:24:12.195Z,56.43
2024-04-16T20:26:44.436Z,56.38
2024-04-16T20:29:17.603Z,57.71
2024-04-16T20:31:49.965Z,57.62
2024-04-16T20:34:23.439Z,57.56
2024-04-16T20:36:56.679Z,57.26
2024-04-16T20:39:28.862Z,57.06
2024-04-16T20:42:01.016Z,57.24
2024-04-16T20:44:33.155Z,57.71
2024-04-16T20:47:05.523Z,58.02
2024-04-16T20:49:37.499Z,58.22
2024-04-16T20:52:09.738Z,59.07
2024-04-16T20:54:41.846Z,58.19
2024-04-16T20:57:14.100Z,59.21
2024-04-16T20:59:46.777Z,59.32
2024-04-16T21:02:18.949Z,59.21
2024-04-16T21:04:51.152Z,59.37
2024-04-16T21:07:23.450Z,59.47
2024-04-16T21:09:55.991Z,60.62
2024-04-16T21:12:28.171Z,61.15
2024-04-16T21:15:00.329Z,60.94
2024-04-16T21:17:32.586Z,61.02
2024-04-16T21:20:05.123Z,60.60
2024-04-16T21:22:37.188Z,60.22
2024-04-16T21:25:09.450Z,60.91
2024-04-16T21:27:41.768Z,60.32
2024-04-16T21:30:13.814Z,61.02
2024-04-16T21:32:46.068Z,61.12
2024-04-16T21:35:18.407Z,62.28
2024-04-16T21:37:50.658Z,61.59
2024-04-16T21:40:22.836Z,60.97
2024-04-16T21:42:55.019Z,61.38
2024-04-16T21:45:27.165Z,62.21
2024-04-16T21:47:59.602Z,63.23
2024-04-16T21:50:33.946Z,62.81
2024-04-16T21:53:07.194Z,62.80
2024-04-16T21:55:39.708Z,63.84
2024-04-16T21:58:11.918Z,63.93
2024-04-16T22:00:44.086Z,63.90
2024-04-16T22:03:16.384Z,63.30
2024-04-16T22:05:48.401Z,64.11
2024-04-16T22:08:20.887Z,64.48
2024-04-16T22:11:03.481Z,64.99
2024-04-16T22:13:35.495Z,63.99
2024-04-16T22:16:08.026Z,65.51
2024-04-16T22:18:40.346Z,65.19
2024-04-16T22:21:12.394Z,65.38
2024-04-16T22:23:44.595Z,64.94
2024-04-16T22:26:16.805Z,64.90
2024-04-16T22:28:49.102Z,64.44
2024-04-16T22:31:21.137Z,65.02
2024-04-16T22:33:53.327Z,64.94
2024-04-16T22:36:25.587Z,65.96
2024-04-16T22:38:58.039Z,65.61
2024-04-16T22:41:30.265Z,66.13
2024-04-16T22:44:02.542Z,65.87
2024-04-16T22:46:35.929Z,65.43
2024-04-16T22:49:08.188Z,66.09
2024-04-16T22:51:40.354Z,65.18
2024-04-16T22:54:12.517Z,64.87
2024-04-16T22:56:46.520Z,64.46
2024-04-16T22:59:19.975Z,65.53
2024-04-16T23:01:53.175Z,64.60
2024-04-16T23:04:25.484Z,64.40
2024-04-16T23:06:57.510Z,63.59
2024-04-16T23:09:29.653Z,64.74
2024-04-16T23:12:01.823Z,64.55
2024-04-16T23:14:34.006Z,63.48
2024-04-16T23:17:06.674Z,63.11
2024-04-16T23:19:38.854Z,64.00
2024-04-16T23:22:12.216Z,63.63
2024-04-16T23:24:47.613Z,62.44
2024-04-16T23:27:19.765Z,63.02
2024-04-16T23:29:51.916Z,62.08
2024-04-16T23:32:24.208Z,62.56
2024-04-16T23:34:57.043Z,62.42
2024-04-16T23:37:29.373Z,63.23
2024-04-16T23:40:01.623Z,64.31
2024-04-16T23:42:33.871Z,62.49
2024-04-16T23:45:06.411Z,61.98
2024-04-16T23:47:38.605Z,64.36
2024-04-16T23:50:10.875Z,63.65
2024-04-16T23:52:43.294Z,63.28
2024-04-16T23:55:15.563Z,64.36
2024-04-16T23:57:48.766Z,63.68
